Sds Red — ICMZ — position and weather

sailwx.info

Track history (hours):
 
Tides and Currents Weather Stations Pressure Air Temp Water Temp Dewpoint Dewpoint Depression Visibility Wind Speed Wind Dir Waves Ship Positions

Sds Red

Last reported at 2017-Sep-19 20:09 UTC. Time now 2017-Sep-21 08:58 UTC.
Position N 40°51' E 029°17'.

Length 108 m; draft 4.5 m.

Type: Cargo ship. MMSI: 247286900.

Date/timePositionNaut miles runAvg speedWind from/ knotsBaromVisibWave heightAir tempDewpointWater temp
2017-Sep-19 20:09N 40°51' E 029°17'1 1.8
2017-Sep-19 19:42N 40°51' E 029°16'24 0.6
2017-Sep-18 01:26N 40°48' E 028°44'18 7.7
2017-Sep-17 23:07N 40°30' E 028°45'  
2017-Sep-11 20:10N 40°31' E 028°42'210.0
2017-Sep-11 19:56N 40°33' E 028°41'113 8.5
2017-Sep-11 06:38N 40°02' E 026°18'2 9.0
2017-Sep-11 06:27N 40°01' E 026°16'16 8.3
2017-Sep-11 04:31N 39°55' E 025°56'0 8.7
2017-Sep-11 04:30N 39°55' E 025°56'15210.5
2017-Sep-10 13:57N 37°44' E 024°18'2910.8
2017-Sep-10 11:16N 37°20' E 023°57'  
Track history (hours):
 
Tides and Currents Weather Stations Pressure Air Temp Water Temp Dewpoint Dewpoint Depression Visibility Wind Speed Wind Dir Waves Ship Positions

Sds Red

Last reported at 2017-Sep-19 20:09 UTC. Time now 2017-Sep-21 08:58 UTC.
Position N 40°51' E 029°17'.

Length 108 m; draft 4.5 m.

Type: Cargo ship. MMSI: 247286900.

Date/timePositionNaut miles runAvg speedWind from/ knotsBaromVisibWave heightAir tempDewpointWater temp
2017-Sep-19 20:09N 40°51' E 029°17'1 1.8
2017-Sep-19 19:42N 40°51' E 029°16'24 0.6
2017-Sep-18 01:26N 40°48' E 028°44'18 7.7
2017-Sep-17 23:07N 40°30' E 028°45'  
2017-Sep-11 20:10N 40°31' E 028°42'210.0
2017-Sep-11 19:56N 40°33' E 028°41'113 8.5
2017-Sep-11 06:38N 40°02' E 026°18'2 9.0
2017-Sep-11 06:27N 40°01' E 026°16'16 8.3
2017-Sep-11 04:31N 39°55' E 025°56'0 8.7
2017-Sep-11 04:30N 39°55' E 025°56'15210.5
2017-Sep-10 13:57N 37°44' E 024°18'2910.8
2017-Sep-10 11:16N 37°20' E 023°57'  

Dump ship's entire track history